createdAt,value
2018-12-02T00:00:39.136Z,1005.73
2018-12-02T00:01:39.231Z,1005.74
2018-12-02T00:02:39.288Z,1005.74
2018-12-02T00:03:39.362Z,1005.70
2018-12-02T00:04:39.448Z,1005.67
2018-12-02T00:05:39.525Z,1005.59
2018-12-02T00:06:39.601Z,1005.59
2018-12-02T00:07:39.666Z,1005.59
2018-12-02T00:08:39.727Z,1005.60
2018-12-02T00:09:39.821Z,1005.55
2018-12-02T00:10:39.892Z,1005.49
2018-12-02T00:11:39.973Z,1005.48
2018-12-02T00:12:40.049Z,1005.47
2018-12-02T00:13:40.116Z,1005.46
2018-12-02T00:14:40.193Z,1005.44
2018-12-02T00:15:40.264Z,1005.44
2018-12-02T00:16:40.340Z,1005.38
2018-12-02T00:17:40.410Z,1005.37
2018-12-02T00:18:40.491Z,1005.36
2018-12-02T00:19:40.558Z,1005.34
2018-12-02T00:20:40.621Z,1005.36
2018-12-02T00:21:40.725Z,1005.32
2018-12-02T00:22:40.807Z,1005.29
2018-12-02T00:23:40.860Z,1005.31
2018-12-02T00:24:40.932Z,1005.30
2018-12-02T00:25:41.025Z,1005.30
2018-12-02T00:26:41.094Z,1005.33
2018-12-02T00:27:41.163Z,1005.29
2018-12-02T00:28:41.241Z,1005.27
2018-12-02T00:29:41.313Z,1005.31
2018-12-02T00:30:41.395Z,1005.30
2018-12-02T00:31:41.469Z,1005.30
2018-12-02T00:32:41.537Z,1005.28
2018-12-02T00:33:41.607Z,1005.29
2018-12-02T00:34:41.677Z,1005.30
2018-12-02T00:35:41.760Z,1005.35
2018-12-02T00:36:41.843Z,1005.30
2018-12-02T00:37:41.918Z,1005.32
2018-12-02T00:38:41.984Z,1005.29
2018-12-02T00:39:42.061Z,1005.19
2018-12-02T00:40:42.131Z,1005.17
2018-12-02T00:41:42.225Z,1005.14
2018-12-02T00:42:42.279Z,1005.14
2018-12-02T00:43:42.347Z,1005.16
2018-12-02T00:44:42.431Z,1005.20
2018-12-02T00:45:42.501Z,1005.14
2018-12-02T00:46:42.600Z,1005.12
2018-12-02T00:47:42.679Z,1005.14
2018-12-02T00:48:42.758Z,1005.07
2018-12-02T00:49:42.826Z,1005.20
2018-12-02T00:50:42.905Z,1005.06
2018-12-02T00:51:42.989Z,1005.06
2018-12-02T00:52:43.120Z,1005.12
2018-12-02T00:53:43.136Z,1005.14
2018-12-02T00:54:43.200Z,1005.08
2018-12-02T00:55:43.275Z,1005.16
2018-12-02T00:56:43.340Z,1005.07
2018-12-02T00:57:43.432Z,1005.07
2018-12-02T00:58:43.504Z,1005.03
2018-12-02T00:59:43.577Z,1005.03
2018-12-02T01:00:43.656Z,1004.98
2018-12-02T01:01:43.735Z,1005.03
2018-12-02T01:02:43.821Z,1005.01
2018-12-02T01:03:43.889Z,1004.96
2018-12-02T01:04:43.950Z,1005.01
2018-12-02T01:05:44.027Z,1004.98
2018-12-02T01:06:44.103Z,1005.01
2018-12-02T01:07:44.218Z,1005.00
2018-12-02T01:08:44.274Z,1005.00
2018-12-02T01:09:44.339Z,1004.98
2018-12-02T01:10:44.407Z,1005.03
2018-12-02T01:11:44.487Z,1004.99
2018-12-02T01:12:44.552Z,1004.97
2018-12-02T01:13:44.640Z,1005.05
2018-12-02T01:14:44.705Z,1004.94
2018-12-02T01:15:44.776Z,1004.98
2018-12-02T01:16:44.873Z,1004.94
2018-12-02T01:17:44.935Z,1004.91
2018-12-02T01:18:45.010Z,1004.95
2018-12-02T01:19:45.083Z,1004.93
2018-12-02T01:20:45.148Z,1004.91
2018-12-02T01:21:45.221Z,1004.87
2018-12-02T01:22:45.322Z,1004.84
2018-12-02T01:23:45.373Z,1004.86
2018-12-02T01:24:45.446Z,1004.83
2018-12-02T01:25:45.531Z,1004.88
2018-12-02T01:26:45.601Z,1004.82
2018-12-02T01:27:45.687Z,1004.86
2018-12-02T01:28:45.746Z,1004.83
2018-12-02T01:29:45.820Z,1004.88
2018-12-02T01:30:45.931Z,1004.82
2018-12-02T01:31:45.978Z,1004.78
2018-12-02T01:32:46.074Z,1004.84
2018-12-02T01:33:46.144Z,1004.80
2018-12-02T01:34:46.202Z,1004.80
2018-12-02T01:35:46.276Z,1004.74
2018-12-02T01:36:46.360Z,1004.80
2018-12-02T01:37:46.441Z,1004.79
2018-12-02T01:38:46.501Z,1004.77
2018-12-02T01:39:46.580Z,1004.74
2018-12-02T01:40:47.431Z,1004.69
2018-12-02T01:41:48.308Z,1004.73
2018-12-02T01:42:47.182Z,1004.70
2018-12-02T01:43:47.252Z,1004.71
2018-12-02T01:44:47.313Z,1004.65
2018-12-02T01:45:47.398Z,1004.65
2018-12-02T01:46:47.473Z,1004.65
2018-12-02T01:47:47.566Z,1004.56
2018-12-02T01:48:47.639Z,1004.54
2018-12-02T01:49:47.695Z,1004.59
2018-12-02T01:50:47.789Z,1004.56
2018-12-02T01:51:47.859Z,1004.54
2018-12-02T01:52:47.935Z,1004.53
2018-12-02T01:53:47.997Z,1004.51
2018-12-02T01:54:48.068Z,1004.55
2018-12-02T01:55:48.155Z,1004.52
2018-12-02T01:56:48.220Z,1004.53
2018-12-02T01:57:48.303Z,1004.49
2018-12-02T01:58:48.369Z,1004.48
2018-12-02T01:59:48.443Z,1004.46
2018-12-02T02:00:48.533Z,1004.40
2018-12-02T02:01:48.585Z,1004.41
2018-12-02T02:02:48.674Z,1004.32
2018-12-02T02:03:48.741Z,1004.36
2018-12-02T02:04:48.820Z,1004.31
2018-12-02T02:05:48.889Z,1004.26
2018-12-02T02:06:48.976Z,1004.28
2018-12-02T02:07:49.056Z,1004.22
2018-12-02T02:08:49.125Z,1004.22
2018-12-02T02:09:49.192Z,1004.14
2018-12-02T02:10:49.264Z,1004.18
2018-12-02T02:11:49.349Z,1004.13
2018-12-02T02:12:49.426Z,1004.09
2018-12-02T02:13:49.497Z,1004.12
2018-12-02T02:14:49.565Z,1004.06
2018-12-02T02:15:49.649Z,1004.04
2018-12-02T02:16:49.722Z,1004.05
2018-12-02T02:17:49.809Z,1004.05
2018-12-02T02:18:49.895Z,1003.99
2018-12-02T02:19:49.962Z,1003.99
2018-12-02T02:20:50.041Z,1003.93
2018-12-02T02:21:50.105Z,1003.97
2018-12-02T02:22:50.195Z,1003.99
2018-12-02T02:23:50.273Z,1003.91
2018-12-02T02:24:50.334Z,1003.90
2018-12-02T02:25:50.405Z,1003.93
2018-12-02T02:26:50.477Z,1003.94
2018-12-02T02:27:50.554Z,1003.94
2018-12-02T02:28:50.640Z,1004.00
2018-12-02T02:29:50.701Z,1003.94
2018-12-02T02:30:50.775Z,1003.90
2018-12-02T02:31:50.849Z,1003.89
2018-12-02T02:32:50.912Z,1003.86
2018-12-02T02:33:51.012Z,1003.87
2018-12-02T02:34:51.078Z,1003.89
2018-12-02T02:35:51.148Z,1003.84
2018-12-02T02:36:51.234Z,1003.84
2018-12-02T02:37:51.306Z,1003.77
2018-12-02T02:38:51.389Z,1003.74
2018-12-02T02:39:51.448Z,1003.77
2018-12-02T02:40:51.579Z,1003.77
2018-12-02T02:41:51.596Z,1003.75
2018-12-02T02:42:51.669Z,1003.77
2018-12-02T02:43:51.805Z,1003.77
2018-12-02T02:44:51.816Z,1003.81
2018-12-02T02:45:51.897Z,1003.77
2018-12-02T02:46:52.019Z,1003.76
2018-12-02T02:47:52.041Z,1003.72
2018-12-02T02:48:52.113Z,1003.76
2018-12-02T02:49:52.187Z,1003.74
2018-12-02T02:50:52.262Z,1003.70
2018-12-02T02:51:52.386Z,1003.71
2018-12-02T02:52:52.414Z,1003.60
2018-12-02T02:53:52.518Z,1003.58
2018-12-02T02:54:52.569Z,1003.50
2018-12-02T02:55:52.633Z,1003.45
2018-12-02T02:56:52.702Z,1003.33
2018-12-02T02:57:52.820Z,1003.35
2018-12-02T02:58:52.866Z,1003.26
2018-12-02T02:59:52.947Z,1003.25
2018-12-02T03:00:53.048Z,1003.20
2018-12-02T03:01:53.088Z,1003.32
2018-12-02T03:02:53.185Z,1003.28
2018-12-02T03:03:53.246Z,1003.29
2018-12-02T03:04:53.338Z,1003.24
2018-12-02T03:05:53.482Z,1003.22
2018-12-02T03:06:53.474Z,1003.20
2018-12-02T03:07:53.543Z,1003.19
2018-12-02T03:08:53.630Z,1003.21
2018-12-02T03:09:53.703Z,1003.22
2018-12-02T03:10:53.783Z,1003.19
2018-12-02T03:11:53.893Z,1003.22
2018-12-02T03:12:53.920Z,1003.23
2018-12-02T03:13:53.999Z,1003.25
2018-12-02T03:14:54.078Z,1003.19
2018-12-02T03:15:54.145Z,1003.16
2018-12-02T03:16:54.212Z,1003.23
2018-12-02T03:17:54.364Z,1003.22
2018-12-02T03:18:54.389Z,1003.22
2018-12-02T03:19:54.483Z,1003.20
2018-12-02T03:20:54.537Z,1003.24
2018-12-02T03:21:54.634Z,1003.19
2018-12-02T03:22:54.703Z,1003.20
2018-12-02T03:23:54.775Z,1003.20
2018-12-02T03:24:54.865Z,1003.18
2018-12-02T03:25:54.920Z,1003.17
2018-12-02T03:26:55.003Z,1003.16
2018-12-02T03:27:55.071Z,1003.15
2018-12-02T03:28:55.140Z,1003.16
2018-12-02T03:29:55.227Z,1003.16
2018-12-02T03:30:55.306Z,1003.10
2018-12-02T03:31:55.395Z,1003.13
2018-12-02T03:32:55.438Z,1003.09
2018-12-02T03:33:55.527Z,1003.11
2018-12-02T03:34:55.599Z,1003.07
2018-12-02T03:35:55.689Z,1003.06
2018-12-02T03:36:55.725Z,1003.08
2018-12-02T03:37:55.809Z,1003.02
2018-12-02T03:38:55.887Z,1003.03
2018-12-02T03:39:55.971Z,1003.04
2018-12-02T03:40:56.031Z,1002.95
2018-12-02T03:41:56.113Z,1002.92
2018-12-02T03:42:56.178Z,1002.89
2018-12-02T03:43:56.254Z,1002.84
2018-12-02T03:44:56.345Z,1002.82
2018-12-02T03:45:56.404Z,1002.83
2018-12-02T03:46:56.503Z,1002.87
2018-12-02T03:47:56.560Z,1002.82
2018-12-02T03:48:56.626Z,1002.79
2018-12-02T03:49:56.719Z,1002.70
2018-12-02T03:50:56.775Z,1002.68
2018-12-02T03:51:56.849Z,1002.71
2018-12-02T03:52:56.921Z,1002.67
2018-12-02T03:53:56.995Z,1002.59
2018-12-02T03:54:57.083Z,1002.66
2018-12-02T03:55:57.149Z,1002.62
2018-12-02T03:56:57.233Z,1002.63
2018-12-02T03:57:57.303Z,1002.60
2018-12-02T03:58:57.378Z,1002.55
2018-12-02T03:59:57.455Z,1002.64
2018-12-02T04:00:57.516Z,1002.63
2018-12-02T04:01:57.593Z,1002.68
2018-12-02T04:02:57.663Z,1002.62
2018-12-02T04:03:57.746Z,1002.62
2018-12-02T04:04:57.841Z,1002.59
2018-12-02T04:05:57.905Z,1002.58
2018-12-02T04:06:57.963Z,1002.57
2018-12-02T04:07:58.047Z,1002.59
2018-12-02T04:08:58.118Z,1002.55
2018-12-02T04:09:58.215Z,1002.52
2018-12-02T04:10:58.286Z,1002.50
2018-12-02T04:11:58.344Z,1002.50
2018-12-02T04:12:58.442Z,1002.46
2018-12-02T04:13:58.491Z,1002.44
2018-12-02T04:14:58.570Z,1002.35
2018-12-02T04:15:58.663Z,1002.41
2018-12-02T04:16:58.715Z,1002.42
2018-12-02T04:17:58.791Z,1002.40
2018-12-02T04:18:58.876Z,1002.41
2018-12-02T04:19:58.953Z,1002.35
2018-12-02T04:20:59.024Z,1002.30
2018-12-02T04:21:59.101Z,1002.33
2018-12-02T04:22:59.158Z,1002.32
2018-12-02T04:23:59.239Z,1002.22
2018-12-02T04:24:59.290Z,1002.27
2018-12-02T04:25:59.388Z,1002.25
2018-12-02T04:26:59.466Z,1002.23
2018-12-02T04:27:59.529Z,1002.24
2018-12-02T04:28:59.608Z,1002.23
2018-12-02T04:29:59.689Z,1002.25
2018-12-02T04:30:59.772Z,1002.18
2018-12-02T04:31:59.840Z,1002.23
2018-12-02T04:32:59.934Z,1002.13
2018-12-02T04:33:59.974Z,1002.19
2018-12-02T04:35:00.049Z,1002.11
2018-12-02T04:36:00.151Z,1002.13
2018-12-02T04:37:00.202Z,1002.10
2018-12-02T04:38:00.276Z,1002.05
2018-12-02T04:39:00.353Z,1002.02
2018-12-02T04:40:00.431Z,1001.99
2018-12-02T04:41:00.503Z,1001.94
2018-12-02T04:42:00.574Z,1001.91
2018-12-02T04:43:00.652Z,1001.88
2018-12-02T04:44:00.744Z,1001.78
2018-12-02T04:45:00.813Z,1001.71
2018-12-02T04:46:00.896Z,1001.70
2018-12-02T04:47:00.972Z,1001.62
2018-12-02T04:48:01.034Z,1001.61
2018-12-02T04:49:01.105Z,1001.59
2018-12-02T04:50:01.202Z,1001.63
2018-12-02T04:51:01.265Z,1001.59
2018-12-02T04:52:01.337Z,1001.58
2018-12-02T04:53:01.401Z,1001.59
2018-12-02T04:54:01.486Z,1001.53
2018-12-02T04:55:01.574Z,1001.44
2018-12-02T04:56:01.644Z,1001.55
2018-12-02T04:57:01.704Z,1001.45
2018-12-02T04:58:01.774Z,1001.48
2018-12-02T04:59:01.857Z,1001.53
2018-12-02T05:00:01.933Z,1001.49
2018-12-02T05:01:02.027Z,1001.44
2018-12-02T05:02:02.080Z,1001.41
2018-12-02T05:03:02.151Z,1001.35
2018-12-02T05:04:02.221Z,1001.32
2018-12-02T05:05:02.298Z,1001.27
2018-12-02T05:06:02.393Z,1001.23
2018-12-02T05:07:02.451Z,1001.21
2018-12-02T05:08:02.519Z,1001.18
2018-12-02T05:09:02.590Z,1001.15
2018-12-02T05:10:02.666Z,1001.14
2018-12-02T05:11:02.771Z,1001.14
2018-12-02T05:12:02.820Z,1001.19
2018-12-02T05:13:02.871Z,1001.12
2018-12-02T05:14:02.967Z,1001.19
2018-12-02T05:15:03.049Z,1001.21
2018-12-02T05:16:03.124Z,1001.19
2018-12-02T05:17:03.217Z,1001.15
2018-12-02T05:18:03.263Z,1001.20
2018-12-02T05:19:03.344Z,1001.12
2018-12-02T05:20:03.417Z,1001.16
2018-12-02T05:21:03.486Z,1001.13
2018-12-02T05:22:03.570Z,1001.08
2018-12-02T05:23:03.659Z,1001.18
2018-12-02T05:24:03.716Z,1001.13
2018-12-02T05:25:03.781Z,1001.19
2018-12-02T05:26:03.862Z,1001.17
2018-12-02T05:27:03.950Z,1001.21
2018-12-02T05:28:04.022Z,1001.17
2018-12-02T05:29:04.068Z,1001.21
2018-12-02T05:30:04.161Z,1001.15
2018-12-02T05:31:04.228Z,1001.16
2018-12-02T05:32:04.312Z,1001.13
2018-12-02T05:33:04.383Z,1001.14
2018-12-02T05:34:04.459Z,1001.12
2018-12-02T05:35:04.540Z,1001.18
2018-12-02T05:36:04.604Z,1001.14
2018-12-02T05:37:04.701Z,1001.17
2018-12-02T05:38:04.756Z,1001.15
2018-12-02T05:39:04.864Z,1001.14
2018-12-02T05:40:04.906Z,1001.14
2018-12-02T05:41:04.977Z,1001.15
2018-12-02T05:42:05.074Z,1001.20
2018-12-02T05:43:05.130Z,1001.15
2018-12-02T05:44:05.203Z,1001.17
2018-12-02T05:45:05.272Z,1001.14
2018-12-02T05:46:05.365Z,1001.16
2018-12-02T05:47:05.455Z,1001.18
2018-12-02T05:48:05.528Z,1001.12
2018-12-02T05:49:05.590Z,1001.11
2018-12-02T05:50:05.661Z,1001.11
2018-12-02T05:51:05.746Z,1001.01
2018-12-02T05:52:05.816Z,1001.06
2018-12-02T05:53:05.896Z,1001.00
2018-12-02T05:54:05.962Z,1001.02
2018-12-02T05:55:06.030Z,1000.95
2018-12-02T05:56:06.109Z,1000.94
2018-12-02T05:57:06.198Z,1000.95
2018-12-02T05:58:06.260Z,1000.95
2018-12-02T05:59:06.331Z,1000.93
2018-12-02T06:00:06.414Z,1000.93
2018-12-02T06:01:06.472Z,1000.91
2018-12-02T06:02:06.573Z,1000.88
2018-12-02T06:03:06.641Z,1000.86
2018-12-02T06:04:06.711Z,1000.81
2018-12-02T06:05:06.828Z,1000.79
2018-12-02T06:06:06.858Z,1000.83
2018-12-02T06:07:06.950Z,1000.77
2018-12-02T06:08:07.027Z,1000.77
2018-12-02T06:09:07.084Z,1000.70
2018-12-02T06:10:07.153Z,1000.72
2018-12-02T06:11:07.243Z,1000.74
2018-12-02T06:12:07.318Z,1000.73
2018-12-02T06:13:07.375Z,1000.66
2018-12-02T06:14:07.463Z,1000.69
2018-12-02T06:15:07.532Z,1000.66
2018-12-02T06:16:07.600Z,1000.68
2018-12-02T06:17:07.714Z,1000.66
2018-12-02T06:18:07.765Z,1000.66
2018-12-02T06:19:07.851Z,1000.67
2018-12-02T06:20:07.924Z,1000.63
2018-12-02T06:21:08.010Z,1000.57
2018-12-02T06:22:08.088Z,1000.53
2018-12-02T06:23:08.169Z,1000.49
2018-12-02T06:24:08.222Z,1000.49
2018-12-02T06:25:08.346Z,1000.61
2018-12-02T06:26:08.371Z,1000.57
2018-12-02T06:27:08.450Z,1000.64
2018-12-02T06:28:08.540Z,1000.63
2018-12-02T06:29:08.596Z,1000.57
2018-12-02T06:30:08.675Z,1000.55
2018-12-02T06:31:08.746Z,1000.72
2018-12-02T06:32:08.825Z,1000.68
2018-12-02T06:33:08.896Z,1000.62
2018-12-02T06:34:08.962Z,1000.67
2018-12-02T06:35:09.045Z,1000.61
2018-12-02T06:36:09.169Z,1000.61
2018-12-02T06:37:09.200Z,1000.58
2018-12-02T06:38:09.278Z,1000.68
2018-12-02T06:39:09.338Z,1000.67
2018-12-02T06:40:09.419Z,1000.71
2018-12-02T06:41:09.486Z,1000.76
2018-12-02T06:42:09.558Z,1000.82
2018-12-02T06:43:09.657Z,1000.79
2018-12-02T06:44:09.718Z,1000.77
2018-12-02T06:45:09.782Z,1000.73
2018-12-02T06:46:09.866Z,1000.68
2018-12-02T06:47:09.931Z,1000.70
2018-12-02T06:48:10.022Z,1000.73
2018-12-02T06:49:10.069Z,1000.72
2018-12-02T06:50:10.155Z,1000.67
2018-12-02T06:51:10.234Z,1000.61
2018-12-02T06:52:10.340Z,1000.61
2018-12-02T06:53:10.390Z,1000.52
2018-12-02T06:54:10.451Z,1000.52
2018-12-02T06:55:10.529Z,1000.54
2018-12-02T06:56:10.607Z,1000.59
2018-12-02T06:57:10.677Z,1000.65
2018-12-02T06:58:10.773Z,1000.68
2018-12-02T06:59:10.825Z,1000.66
2018-12-02T07:00:10.924Z,1000.66
2018-12-02T07:01:10.972Z,1000.63
2018-12-02T07:02:11.049Z,1000.69
2018-12-02T07:03:11.144Z,1000.66
2018-12-02T07:04:11.209Z,1000.66
2018-12-02T07:05:11.262Z,1000.62
2018-12-02T07:06:11.357Z,1000.55
2018-12-02T07:07:11.425Z,1000.56
2018-12-02T07:08:11.511Z,1000.41
2018-12-02T07:09:11.626Z,1000.46
2018-12-02T07:10:11.643Z,1000.42
2018-12-02T07:11:11.726Z,1000.44
2018-12-02T07:12:11.796Z,1000.43
2018-12-02T07:13:11.877Z,1000.37
2018-12-02T07:14:11.938Z,1000.30
2018-12-02T07:15:12.088Z,1000.41
2018-12-02T07:16:12.095Z,1000.38
2018-12-02T07:17:12.160Z,1000.36
2018-12-02T07:18:12.305Z,1000.26
2018-12-02T07:19:12.314Z,1000.12
2018-12-02T07:20:12.391Z,1000.15
2018-12-02T07:21:12.450Z,1000.14
2018-12-02T07:22:12.532Z,1000.15
2018-12-02T07:23:12.622Z,1000.17
2018-12-02T07:24:12.686Z,1000.16
2018-12-02T07:25:12.762Z,1000.19
2018-12-02T07:26:12.853Z,1000.13
2018-12-02T07:27:12.914Z,1000.24
2018-12-02T07:28:12.998Z,1000.23
2018-12-02T07:29:13.066Z,1000.25
2018-12-02T07:30:13.136Z,1000.30
2018-12-02T07:31:13.201Z,1000.14
2018-12-02T07:32:13.294Z,1000.15
2018-12-02T07:33:13.362Z,1000.09
2018-12-02T07:34:13.429Z,1000.09
2018-12-02T07:35:13.502Z,1000.09
2018-12-02T07:36:13.575Z,1000.05
2018-12-02T07:37:13.673Z,1000.08
2018-12-02T07:38:13.766Z,1000.09
2018-12-02T07:39:13.797Z,999.97
2018-12-02T07:40:13.886Z,999.94
2018-12-02T07:41:13.950Z,999.83
2018-12-02T07:42:14.025Z,999.90
2018-12-02T07:43:14.114Z,999.85
2018-12-02T07:44:14.183Z,999.83
2018-12-02T07:45:14.243Z,999.83
2018-12-02T07:46:14.320Z,999.88
2018-12-02T07:47:14.384Z,999.78
2018-12-02T07:48:14.480Z,999.74
2018-12-02T07:49:14.561Z,999.86
2018-12-02T07:50:14.629Z,999.87
2018-12-02T07:51:14.700Z,999.81
2018-12-02T07:52:14.775Z,999.74
2018-12-02T07:53:14.833Z,999.66
2018-12-02T07:54:14.929Z,999.64
2018-12-02T07:55:15.000Z,999.64
2018-12-02T07:56:15.073Z,999.65
2018-12-02T07:57:15.147Z,999.56
2018-12-02T07:58:15.224Z,999.65
2018-12-02T07:59:15.299Z,999.57
2018-12-02T08:00:15.394Z,999.61
2018-12-02T08:01:15.450Z,999.68
2018-12-02T08:02:15.513Z,999.65
2018-12-02T08:03:15.586Z,999.62
2018-12-02T08:04:15.676Z,999.60
2018-12-02T08:05:15.750Z,999.54
2018-12-02T08:06:15.816Z,999.59
2018-12-02T08:07:15.885Z,999.50
2018-12-02T08:08:15.962Z,999.55
2018-12-02T08:09:16.031Z,999.51
2018-12-02T08:10:16.100Z,999.44
2018-12-02T08:11:16.191Z,999.42
2018-12-02T08:12:16.266Z,999.44
2018-12-02T08:13:16.349Z,999.51
2018-12-02T08:14:16.419Z,999.52
2018-12-02T08:15:16.493Z,999.45
2018-12-02T08:16:16.572Z,999.47
2018-12-02T08:17:16.631Z,999.36
2018-12-02T08:18:16.708Z,999.36
2018-12-02T08:19:16.793Z,999.42
2018-12-02T08:20:16.866Z,999.32
2018-12-02T08:21:16.936Z,999.37
2018-12-02T08:22:17.036Z,999.30
2018-12-02T08:23:17.075Z,999.30
2018-12-02T08:24:17.172Z,999.33
2018-12-02T08:25:17.217Z,999.33
2018-12-02T08:26:17.298Z,999.29
2018-12-02T08:27:17.388Z,999.26
2018-12-02T08:28:17.448Z,999.29
2018-12-02T08:29:17.540Z,999.21
2018-12-02T08:30:17.604Z,999.20
2018-12-02T08:31:17.669Z,999.22
2018-12-02T08:32:17.736Z,999.17
2018-12-02T08:33:17.836Z,999.19
2018-12-02T08:34:17.905Z,999.21
2018-12-02T08:35:17.972Z,999.18
2018-12-02T08:36:18.064Z,999.21
2018-12-02T08:37:18.125Z,999.15
2018-12-02T08:38:18.250Z,999.20
2018-12-02T08:39:18.283Z,999.16
2018-12-02T08:40:18.355Z,999.11
2018-12-02T08:41:18.410Z,999.16
2018-12-02T08:42:18.497Z,999.18
2018-12-02T08:43:18.573Z,999.15
2018-12-02T08:44:18.675Z,999.13
2018-12-02T08:45:18.733Z,999.13
2018-12-02T08:46:18.803Z,999.12
2018-12-02T08:47:18.892Z,999.13
2018-12-02T08:48:18.957Z,999.10
2018-12-02T08:49:19.029Z,999.11
2018-12-02T08:50:19.099Z,999.02
2018-12-02T08:51:19.178Z,999.04
2018-12-02T08:52:19.259Z,999.01
2018-12-02T08:53:19.319Z,998.94
2018-12-02T08:54:19.405Z,998.92
2018-12-02T08:55:19.475Z,998.98
2018-12-02T08:56:19.549Z,998.97
2018-12-02T08:57:19.609Z,998.96
2018-12-02T08:58:19.707Z,998.98
2018-12-02T08:59:19.789Z,998.92
2018-12-02T09:00:19.852Z,998.94
2018-12-02T09:01:19.932Z,998.88
2018-12-02T09:02:19.998Z,998.90
2018-12-02T09:03:20.077Z,998.90
2018-12-02T09:04:20.160Z,998.93
2018-12-02T09:05:20.215Z,998.86
2018-12-02T09:06:20.295Z,998.90
2018-12-02T09:07:20.379Z,998.83
2018-12-02T09:08:20.456Z,998.83
2018-12-02T09:09:20.539Z,998.84
2018-12-02T09:10:20.599Z,998.81
2018-12-02T09:11:20.676Z,998.83
2018-12-02T09:12:20.752Z,998.84
2018-12-02T09:13:20.821Z,998.81
2018-12-02T09:14:20.909Z,998.85
2018-12-02T09:15:20.988Z,998.74
2018-12-02T09:16:21.042Z,998.77
2018-12-02T09:17:21.131Z,998.78
2018-12-02T09:18:21.197Z,998.67
2018-12-02T09:19:21.285Z,998.80
2018-12-02T09:20:21.365Z,998.67
2018-12-02T09:21:21.414Z,998.71
2018-12-02T09:22:21.488Z,998.76
2018-12-02T09:23:21.572Z,998.69
2018-12-02T09:24:21.668Z,998.70
2018-12-02T09:25:21.719Z,998.65
2018-12-02T09:26:21.804Z,998.62
2018-12-02T09:27:21.870Z,998.57
2018-12-02T09:28:21.944Z,998.59
2018-12-02T09:29:22.026Z,998.60
2018-12-02T09:30:22.093Z,998.54
2018-12-02T09:31:22.168Z,998.48
2018-12-02T09:32:22.245Z,998.44
2018-12-02T09:33:22.318Z,998.48
2018-12-02T09:34:22.411Z,998.47
2018-12-02T09:35:22.490Z,998.52
2018-12-02T09:36:22.535Z,998.43
2018-12-02T09:37:22.612Z,998.41
2018-12-02T09:38:22.687Z,998.42
2018-12-02T09:39:22.783Z,998.37
2018-12-02T09:40:22.847Z,998.40
2018-12-02T09:41:22.911Z,998.31
2018-12-02T09:42:22.993Z,998.37
2018-12-02T09:43:23.062Z,998.35
2018-12-02T09:44:23.143Z,998.34
2018-12-02T09:45:23.202Z,998.30
2018-12-02T09:46:23.301Z,998.24
2018-12-02T09:47:23.361Z,998.28
2018-12-02T09:48:23.434Z,998.20
2018-12-02T09:49:23.513Z,998.21
2018-12-02T09:50:23.582Z,998.19
2018-12-02T09:51:23.673Z,998.19
2018-12-02T09:52:23.729Z,998.16
2018-12-02T09:53:23.803Z,998.19
2018-12-02T09:54:23.880Z,998.20
2018-12-02T09:55:23.970Z,998.13
2018-12-02T09:56:24.027Z,998.16
2018-12-02T09:57:24.142Z,998.13
2018-12-02T09:58:24.199Z,998.13
2018-12-02T09:59:24.271Z,998.15
2018-12-02T10:00:24.355Z,998.14
2018-12-02T10:01:24.407Z,998.18
2018-12-02T10:02:24.509Z,998.12
2018-12-02T10:03:24.575Z,998.08
2018-12-02T10:04:24.649Z,998.06
2018-12-02T10:05:24.739Z,998.07
2018-12-02T10:06:24.801Z,998.04
2018-12-02T10:07:24.876Z,997.98
2018-12-02T10:08:24.952Z,997.92
2018-12-02T10:09:25.054Z,997.97
2018-12-02T10:10:25.099Z,997.92
2018-12-02T10:11:25.177Z,997.95
2018-12-02T10:12:25.256Z,997.94
2018-12-02T10:13:25.334Z,998.03
2018-12-02T10:14:25.405Z,997.93
2018-12-02T10:15:25.487Z,997.88
2018-12-02T10:16:25.575Z,997.86
2018-12-02T10:17:25.619Z,997.81
2018-12-02T10:18:25.695Z,997.81
2018-12-02T10:19:25.775Z,997.82
2018-12-02T10:20:25.855Z,997.78
2018-12-02T10:21:25.927Z,997.73
2018-12-02T10:22:26.001Z,997.71
2018-12-02T10:23:26.070Z,997.73
2018-12-02T10:24:26.133Z,997.75
2018-12-02T10:25:26.233Z,997.70
2018-12-02T10:26:26.294Z,997.67
2018-12-02T10:27:26.367Z,997.67
2018-12-02T10:28:26.443Z,997.69
2018-12-02T10:29:26.516Z,997.61
2018-12-02T10:30:26.980Z,997.64
2018-12-02T10:31:26.667Z,997.64
2018-12-02T10:32:26.751Z,997.65
2018-12-02T10:33:26.806Z,997.60
2018-12-02T10:34:26.886Z,997.59
2018-12-02T10:35:26.973Z,997.65
2018-12-02T10:36:27.046Z,997.53
2018-12-02T10:37:27.164Z,997.50
2018-12-02T10:38:27.181Z,997.50
2018-12-02T10:39:27.291Z,997.49
2018-12-02T10:40:27.336Z,997.48
2018-12-02T10:41:27.407Z,997.45
2018-12-02T10:42:27.488Z,997.42
2018-12-02T10:43:27.570Z,997.44
2018-12-02T10:44:27.657Z,997.40
2018-12-02T10:45:27.723Z,997.38
2018-12-02T10:46:27.806Z,997.35
2018-12-02T10:47:27.863Z,997.35
2018-12-02T10:48:27.953Z,997.35
2018-12-02T10:49:28.005Z,997.30
2018-12-02T10:50:28.094Z,997.32
2018-12-02T10:51:28.161Z,997.26
2018-12-02T10:52:28.244Z,997.24
2018-12-02T10:53:28.316Z,997.26
2018-12-02T10:54:29.319Z,997.25
2018-12-02T10:55:28.513Z,997.24
2018-12-02T10:56:28.585Z,997.25
2018-12-02T10:57:28.658Z,997.24
2018-12-02T10:58:28.729Z,997.22
2018-12-02T10:59:28.855Z,997.18
2018-12-02T11:00:28.895Z,997.23
2018-12-02T11:01:28.949Z,997.13
2018-12-02T11:02:29.026Z,997.14
2018-12-02T11:03:29.100Z,997.22
2018-12-02T11:04:29.178Z,997.20
2018-12-02T11:05:29.247Z,997.18
2018-12-02T11:06:29.321Z,997.01
2018-12-02T11:07:29.408Z,997.09
2018-12-02T11:08:29.466Z,997.13
2018-12-02T11:09:29.550Z,997.05
2018-12-02T11:10:29.635Z,997.06
2018-12-02T11:11:30.994Z,997.07
2018-12-02T11:12:31.148Z,997.03
2018-12-02T11:13:30.073Z,997.06
2018-12-02T11:14:30.152Z,997.03
2018-12-02T11:15:30.232Z,997.02
2018-12-02T11:16:30.310Z,997.00
2018-12-02T11:17:30.373Z,997.03
2018-12-02T11:18:30.445Z,996.94
2018-12-02T11:19:30.521Z,996.95
2018-12-02T11:20:30.603Z,996.95
2018-12-02T11:21:30.667Z,996.93
2018-12-02T11:22:30.741Z,996.95
2018-12-02T11:23:30.815Z,996.95
2018-12-02T11:24:30.894Z,996.92
2018-12-02T11:25:30.983Z,996.90
2018-12-02T11:26:31.049Z,996.89
2018-12-02T11:27:31.120Z,996.87
2018-12-02T11:28:31.191Z,996.88
2018-12-02T11:29:31.267Z,996.80
2018-12-02T11:30:31.353Z,996.82
2018-12-02T11:31:31.442Z,996.74
2018-12-02T11:32:31.499Z,996.75
2018-12-02T11:33:31.565Z,996.72
2018-12-02T11:34:31.685Z,996.68
2018-12-02T11:35:31.729Z,996.72
2018-12-02T11:36:31.795Z,996.65
2018-12-02T11:37:31.895Z,996.67
2018-12-02T11:38:31.934Z,996.64
2018-12-02T11:39:32.020Z,996.62
2018-12-02T11:40:32.127Z,996.62
2018-12-02T11:41:32.178Z,996.59
2018-12-02T11:42:32.234Z,996.64
2018-12-02T11:43:32.354Z,996.61
2018-12-02T11:44:32.391Z,996.58
2018-12-02T11:45:32.459Z,996.59
2018-12-02T11:46:32.585Z,996.57
2018-12-02T11:47:32.647Z,996.57
2018-12-02T11:48:32.731Z,996.57
2018-12-02T11:49:32.799Z,996.54
2018-12-02T11:50:32.870Z,996.59
2018-12-02T11:51:32.997Z,996.59
2018-12-02T11:52:33.020Z,996.55
2018-12-02T11:53:33.085Z,996.54
2018-12-02T11:54:33.215Z,996.56
2018-12-02T11:55:33.248Z,996.57
2018-12-02T11:56:33.332Z,996.49
2018-12-02T11:57:33.410Z,996.46
2018-12-02T11:58:33.472Z,996.47
2018-12-02T11:59:33.542Z,996.40
2018-12-02T12:00:33.619Z,996.42
2018-12-02T12:01:33.699Z,996.41
2018-12-02T12:02:33.769Z,996.40
2018-12-02T12:03:33.841Z,996.35
2018-12-02T12:04:33.915Z,996.41
2018-12-02T12:05:33.996Z,996.37
2018-12-02T12:06:34.078Z,996.36
2018-12-02T12:07:34.136Z,996.32
2018-12-02T12:08:34.222Z,996.31
2018-12-02T12:09:34.273Z,996.33
2018-12-02T12:10:34.357Z,996.28
2018-12-02T12:11:34.448Z,996.31
2018-12-02T12:12:34.507Z,996.22
2018-12-02T12:13:34.580Z,996.23
2018-12-02T12:14:34.665Z,996.23
2018-12-02T12:15:34.757Z,996.19